sensor_id;sensor_type;location;lat;lon;timestamp;P1;durP1;ratioP1;P2;durP2;ratioP2
14675;SDS011;7426;52.524;13.460;2022-09-20T00:00:14;766.7625;;;643.9250000000001;;
14675;SDS011;7426;52.524;13.460;2022-09-20T00:02:14;820.175;;;646.575;;
14675;SDS011;7426;52.524;13.460;2022-09-20T00:04:14;987.0749999999999;;;674.6624999999999;;
14675;SDS011;7426;52.524;13.460;2022-09-20T00:06:15;1035.6;;;719.3125;;
14675;SDS011;7426;52.524;13.460;2022-09-20T00:08:15;1001.2625;;;734.725;;
14675;SDS011;7426;52.524;13.460;2022-09-20T00:10:14;879.7;;;726.625;;
14675;SDS011;7426;52.524;13.460;2022-09-20T00:12:14;1021.525;;;733.0625;;
14675;SDS011;7426;52.524;13.460;2022-09-20T00:14:14;1089.4625;;;738.425;;
14675;SDS011;7426;52.524;13.460;2022-09-20T00:16:15;1063.9875;;;689.6125;;
14675;SDS011;7426;52.524;13.460;2022-09-20T00:18:14;1064.3;;;688.5125;;
14675;SDS011;7426;52.524;13.460;2022-09-20T00:20:14;1308.25;;;751.1;;
14675;SDS011;7426;52.524;13.460;2022-09-20T00:22:14;1064.45;;;730.5375;;
14675;SDS011;7426;52.524;13.460;2022-09-20T00:24:14;1044.725;;;602.5500000000001;;
14675;SDS011;7426;52.524;13.460;2022-09-20T00:26:14;933.5375000000001;;;692.2624999999999;;
14675;SDS011;7426;52.524;13.460;2022-09-20T00:28:14;1187.8125;;;751.3625;;
14675;SDS011;7426;52.524;13.460;2022-09-20T00:30:14;911.0874999999999;;;656.125;;
14675;SDS011;7426;52.524;13.460;2022-09-20T00:32:14;1467.8500000000001;;;747.75;;
14675;SDS011;7426;52.524;13.460;2022-09-20T00:35:19;1029.1000000000001;;;691.25;;
14675;SDS011;7426;52.524;13.460;2022-09-20T00:36:14;1195.725;;;691.925;;
14675;SDS011;7426;52.524;13.460;2022-09-20T00:38:15;1430.0;;;781.6875;;
14675;SDS011;7426;52.524;13.460;2022-09-20T00:40:14;1357.1875;;;724.1500000000001;;
14675;SDS011;7426;52.524;13.460;2022-09-20T00:42:14;1465.7;;;761.5374999999999;;
14675;SDS011;7426;52.524;13.460;2022-09-20T00:44:48;1574.3;;;758.5875;;
14675;SDS011;7426;52.524;13.460;2022-09-20T00:46:17;1571.375;;;736.9625;;
14675;SDS011;7426;52.524;13.460;2022-09-20T00:48:15;1279.8249999999998;;;766.75;;
14675;SDS011;7426;52.524;13.460;2022-09-20T00:50:19;1497.1625000000001;;;776.375;;
14675;SDS011;7426;52.524;13.460;2022-09-20T00:52:14;1606.55;;;824.925;;
14675;SDS011;7426;52.524;13.460;2022-09-20T00:54:15;1589.525;;;809.4124999999999;;
14675;SDS011;7426;52.524;13.460;2022-09-20T00:56:15;1593.5125;;;785.5125;;
14675;SDS011;7426;52.524;13.460;2022-09-20T00:58:15;1645.8625;;;758.9625;;
14675;SDS011;7426;52.524;13.460;2022-09-20T01:00:14;1218.475;;;612.6999999999999;;
14675;SDS011;7426;52.524;13.460;2022-09-20T01:02:14;1577.7624999999998;;;760.6125;;
14675;SDS011;7426;52.524;13.460;2022-09-20T01:04:14;1564.65;;;785.3875;;
14675;SDS011;7426;52.524;13.460;2022-09-20T01:06:14;1523.225;;;754.3875;;
14675;SDS011;7426;52.524;13.460;2022-09-20T01:08:14;1705.9375;;;788.375;;
14675;SDS011;7426;52.524;13.460;2022-09-20T01:10:14;1586.5625;;;819.3;;
14675;SDS011;7426;52.524;13.460;2022-09-20T01:12:15;1640.4875;;;802.5374999999999;;
14675;SDS011;7426;52.524;13.460;2022-09-20T01:14:14;1643.8875;;;781.525;;
14675;SDS011;7426;52.524;13.460;2022-09-20T01:16:14;1414.425;;;758.675;;
14675;SDS011;7426;52.524;13.460;2022-09-20T01:18:14;1549.3375;;;766.8625;;
14675;SDS011;7426;52.524;13.460;2022-09-20T01:20:15;1514.85;;;768.825;;
14675;SDS011;7426;52.524;13.460;2022-09-20T01:22:16;1390.3374999999999;;;759.575;;
14675;SDS011;7426;52.524;13.460;2022-09-20T01:24:15;1462.9875;;;773.4625;;
14675;SDS011;7426;52.524;13.460;2022-09-20T01:27:20;1338.6374999999998;;;749.2125;;
14675;SDS011;7426;52.524;13.460;2022-09-20T01:28:14;1730.8875;;;808.0;;
14675;SDS011;7426;52.524;13.460;2022-09-20T01:30:14;1604.7749999999999;;;692.75;;
14675;SDS011;7426;52.524;13.460;2022-09-20T01:32:15;1563.9250000000002;;;541.725;;
14675;SDS011;7426;52.524;13.460;2022-09-20T01:34:16;1754.7;;;729.2625;;
14675;SDS011;7426;52.524;13.460;2022-09-20T01:36:16;1482.725;;;717.5250000000001;;
14675;SDS011;7426;52.524;13.460;2022-09-20T01:38:18;1752.1999999999998;;;718.6875;;
14675;SDS011;7426;52.524;13.460;2022-09-20T01:40:16;1348.15;;;744.9875;;
14675;SDS011;7426;52.524;13.460;2022-09-20T01:42:14;1773.6;;;838.575;;
14675;SDS011;7426;52.524;13.460;2022-09-20T01:44:16;1766.5125;;;832.575;;
14675;SDS011;7426;52.524;13.460;2022-09-20T01:46:17;1686.8625;;;814.8125;;
14675;SDS011;7426;52.524;13.460;2022-09-20T01:48:17;1717.325;;;839.9875;;
14675;SDS011;7426;52.524;13.460;2022-09-20T01:50:15;1749.0124999999998;;;822.8375;;
14675;SDS011;7426;52.524;13.460;2022-09-20T01:52:21;1680.7;;;808.925;;
14675;SDS011;7426;52.524;13.460;2022-09-20T01:54:33;1451.6125;;;755.0874999999999;;
14675;SDS011;7426;52.524;13.460;2022-09-20T01:56:19;1496.0500000000002;;;785.7125;;
14675;SDS011;7426;52.524;13.460;2022-09-20T01:58:23;1555.35;;;784.55;;
14675;SDS011;7426;52.524;13.460;2022-09-20T02:00:14;1578.625;;;803.7375;;
14675;SDS011;7426;52.524;13.460;2022-09-20T02:04:19;1478.0875;;;803.3125;;
14675;SDS011;7426;52.524;13.460;2022-09-20T02:06:25;1611.9375;;;811.1875;;
14675;SDS011;7426;52.524;13.460;2022-09-20T02:08:27;1431.5249999999999;;;787.4124999999999;;
14675;SDS011;7426;52.524;13.460;2022-09-20T02:10:21;1516.4;;;791.3;;
14675;SDS011;7426;52.524;13.460;2022-09-20T02:12:18;1168.6875;;;778.9875;;
14675;SDS011;7426;52.524;13.460;2022-09-20T02:14:22;1287.9624999999999;;;703.2125;;
14675;SDS011;7426;52.524;13.460;2022-09-20T02:16:19;1226.2;;;775.05;;
14675;SDS011;7426;52.524;13.460;2022-09-20T02:18:19;806.6624999999999;;;659.9875;;
14675;SDS011;7426;52.524;13.460;2022-09-20T02:20:18;1228.4625;;;758.35;;
14675;SDS011;7426;52.524;13.460;2022-09-20T02:22:17;1119.675;;;742.5749999999999;;
14675;SDS011;7426;52.524;13.460;2022-09-20T02:24:16;1148.325;;;786.05;;
14675;SDS011;7426;52.524;13.460;2022-09-20T02:26:19;977.675;;;773.975;;
14675;SDS011;7426;52.524;13.460;2022-09-20T02:28:18;819.2375;;;686.9000000000001;;
14675;SDS011;7426;52.524;13.460;2022-09-20T02:30:21;762.9125;;;654.0875;;
14675;SDS011;7426;52.524;13.460;2022-09-20T02:32:19;770.6249999999999;;;691.575;;
14675;SDS011;7426;52.524;13.460;2022-09-20T02:34:18;642.9375;;;576.5124999999999;;
14675;SDS011;7426;52.524;13.460;2022-09-20T02:36:18;689.675;;;615.125;;
14675;SDS011;7426;52.524;13.460;2022-09-20T02:38:17;692.2125000000001;;;626.575;;
14675;SDS011;7426;52.524;13.460;2022-09-20T02:40:19;726.775;;;657.55;;
14675;SDS011;7426;52.524;13.460;2022-09-20T02:42:14;673.6875;;;609.0875;;
14675;SDS011;7426;52.524;13.460;2022-09-20T02:44:17;644.0500000000001;;;582.8125;;
14675;SDS011;7426;52.524;13.460;2022-09-20T02:46:16;607.025;;;551.125;;
14675;SDS011;7426;52.524;13.460;2022-09-20T02:48:15;656.8125;;;596.8;;
14675;SDS011;7426;52.524;13.460;2022-09-20T02:50:18;561.1125;;;512.9375;;
14675;SDS011;7426;52.524;13.460;2022-09-20T02:52:15;683.5;;;616.3375;;
14675;SDS011;7426;52.524;13.460;2022-09-20T02:54:15;588.2125;;;533.4;;
14675;SDS011;7426;52.524;13.460;2022-09-20T02:56:16;614.7625;;;561.2625;;
14675;SDS011;7426;52.524;13.460;2022-09-20T02:58:21;615.5250000000001;;;554.0875000000001;;
14675;SDS011;7426;52.524;13.460;2022-09-20T03:00:15;614.675;;;560.95;;
14675;SDS011;7426;52.524;13.460;2022-09-20T03:02:16;620.8375;;;564.5374999999999;;
14675;SDS011;7426;52.524;13.460;2022-09-20T03:04:19;610.025;;;555.3625;;
14675;SDS011;7426;52.524;13.460;2022-09-20T03:06:18;639.5375;;;582.5875;;
14675;SDS011;7426;52.524;13.460;2022-09-20T03:08:18;535.0875;;;486.11249999999995;;
14675;SDS011;7426;52.524;13.460;2022-09-20T03:10:15;537.9;;;490.09999999999997;;
14675;SDS011;7426;52.524;13.460;2022-09-20T03:12:17;358.99999999999994;;;324.79999999999995;;
14675;SDS011;7426;52.524;13.460;2022-09-20T03:14:16;545.3375;;;496.91249999999997;;
14675;SDS011;7426;52.524;13.460;2022-09-20T03:16:15;640.125;;;576.3625;;
14675;SDS011;7426;52.524;13.460;2022-09-20T03:18:15;485.22499999999997;;;436.55;;
14675;SDS011;7426;52.524;13.460;2022-09-20T03:20:19;641.6375;;;575.7375;;
14675;SDS011;7426;52.524;13.460;2022-09-20T03:22:18;756.1875;;;678.6625;;
14675;SDS011;7426;52.524;13.460;2022-09-20T03:24:17;636.7624999999999;;;573.7625;;
14675;SDS011;7426;52.524;13.460;2022-09-20T03:26:17;647.1625;;;584.7875;;
14675;SDS011;7426;52.524;13.460;2022-09-20T03:28:20;678.075;;;611.75;;
14675;SDS011;7426;52.524;13.460;2022-09-20T03:30:21;528.0;;;477.2625;;
14675;SDS011;7426;52.524;13.460;2022-09-20T03:32:21;649.7;;;584.0250000000001;;
14675;SDS011;7426;52.524;13.460;2022-09-20T03:34:18;703.7;;;631.9625;;
14675;SDS011;7426;52.524;13.460;2022-09-20T03:36:20;1722.5125;;;705.875;;
14675;SDS011;7426;52.524;13.460;2022-09-20T03:38:17;592.7249999999999;;;541.4375;;
14675;SDS011;7426;52.524;13.460;2022-09-20T03:41:23;425.8875;;;389.5875;;
14675;SDS011;7426;52.524;13.460;2022-09-20T03:42:17;552.6125;;;505.3625;;
14675;SDS011;7426;52.524;13.460;2022-09-20T03:44:22;1831.4;;;791.675;;
14675;SDS011;7426;52.524;13.460;2022-09-20T03:46:15;1094.575;;;797.3875;;
14675;SDS011;7426;52.524;13.460;2022-09-20T03:48:18;831.5124999999999;;;719.75;;
14675;SDS011;7426;52.524;13.460;2022-09-20T03:50:26;817.6250000000001;;;673.7625;;
14675;SDS011;7426;52.524;13.460;2022-09-20T03:52:16;1315.75;;;777.675;;
14675;SDS011;7426;52.524;13.460;2022-09-20T03:56:20;279.5125;;;257.8875;;
14675;SDS011;7426;52.524;13.460;2022-09-20T03:58:18;337.4625;;;311.0375;;
14675;SDS011;7426;52.524;13.460;2022-09-20T04:00:18;273.0375;;;248.9;;
14675;SDS011;7426;52.524;13.460;2022-09-20T04:02:20;150.025;;;137.3375;;
14675;SDS011;7426;52.524;13.460;2022-09-20T04:04:18;144.85000000000002;;;132.9625;;
14675;SDS011;7426;52.524;13.460;2022-09-20T04:06:20;142.0;;;130.5625;;
14675;SDS011;7426;52.524;13.460;2022-09-20T04:08:16;132.4;;;121.5125;;
14675;SDS011;7426;52.524;13.460;2022-09-20T04:10:17;214.875;;;195.075;;
14675;SDS011;7426;52.524;13.460;2022-09-20T04:12:16;252.77500000000003;;;231.9625;;
14675;SDS011;7426;52.524;13.460;2022-09-20T04:14:15;207.575;;;190.5;;
14675;SDS011;7426;52.524;13.460;2022-09-20T04:16:21;161.4;;;148.27499999999998;;
14675;SDS011;7426;52.524;13.460;2022-09-20T04:18:18;185.91250000000002;;;170.0375;;
14675;SDS011;7426;52.524;13.460;2022-09-20T04:20:15;150.9125;;;137.2875;;
14675;SDS011;7426;52.524;13.460;2022-09-20T04:22:15;185.0;;;170.3;;
14675;SDS011;7426;52.524;13.460;2022-09-20T04:24:17;294.325;;;270.35;;
14675;SDS011;7426;52.524;13.460;2022-09-20T04:26:14;264.0375;;;242.5625;;
14675;SDS011;7426;52.524;13.460;2022-09-20T04:28:16;86.2625;;;78.7875;;
14675;SDS011;7426;52.524;13.460;2022-09-20T04:30:16;258.2625;;;237.3;;
14675;SDS011;7426;52.524;13.460;2022-09-20T04:32:15;167.875;;;155.0;;
14675;SDS011;7426;52.524;13.460;2022-09-20T04:34:16;194.9375;;;178.96250000000003;;
14675;SDS011;7426;52.524;13.460;2022-09-20T04:36:35;229.96250000000003;;;211.0375;;
14675;SDS011;7426;52.524;13.460;2022-09-20T04:38:15;196.125;;;180.20000000000002;;
14675;SDS011;7426;52.524;13.460;2022-09-20T04:40:19;294.82499999999993;;;270.775;;
14675;SDS011;7426;52.524;13.460;2022-09-20T04:42:21;232.0;;;212.5625;;
14675;SDS011;7426;52.524;13.460;2022-09-20T04:44:19;140.2375;;;128.5125;;
14675;SDS011;7426;52.524;13.460;2022-09-20T04:46:21;265.25;;;244.5375;;
14675;SDS011;7426;52.524;13.460;2022-09-20T04:50:22;382.625;;;349.725;;
14675;SDS011;7426;52.524;13.460;2022-09-20T04:52:21;260.725;;;239.1125;;
14675;SDS011;7426;52.524;13.460;2022-09-20T04:56:18;351.75;;;323.67499999999995;;
14675;SDS011;7426;52.524;13.460;2022-09-20T04:58:32;316.525;;;290.4375;;
14675;SDS011;7426;52.524;13.460;2022-09-20T05:00:15;592.525;;;540.7625;;
14675;SDS011;7426;52.524;13.460;2022-09-20T05:02:24;362.9875;;;333.4875;;
14675;SDS011;7426;52.524;13.460;2022-09-20T05:04:22;171.525;;;157.07500000000002;;
14675;SDS011;7426;52.524;13.460;2022-09-20T05:06:21;368.75;;;339.3875;;
14675;SDS011;7426;52.524;13.460;2022-09-20T05:08:23;308.57500000000005;;;282.175;;
14675;SDS011;7426;52.524;13.460;2022-09-20T05:10:20;280.5625;;;258.1375;;
14675;SDS011;7426;52.524;13.460;2022-09-20T05:12:24;258.65000000000003;;;236.73749999999998;;
14675;SDS011;7426;52.524;13.460;2022-09-20T05:14:21;326.925;;;300.475;;
14675;SDS011;7426;52.524;13.460;2022-09-20T05:16:17;209.9125;;;192.08749999999998;;
14675;SDS011;7426;52.524;13.460;2022-09-20T05:18:22;188.98749999999998;;;172.475;;
14675;SDS011;7426;52.524;13.460;2022-09-20T05:20:18;154.39999999999998;;;140.39999999999998;;
14675;SDS011;7426;52.524;13.460;2022-09-20T05:22:30;209.8;;;191.6;;
14675;SDS011;7426;52.524;13.460;2022-09-20T05:24:18;194.77499999999998;;;178.65;;
14675;SDS011;7426;52.524;13.460;2022-09-20T05:26:17;220.0625;;;202.8875;;
14675;SDS011;7426;52.524;13.460;2022-09-20T05:28:16;213.79999999999998;;;196.1375;;
14675;SDS011;7426;52.524;13.460;2022-09-20T05:30:20;222.8125;;;205.825;;
14675;SDS011;7426;52.524;13.460;2022-09-20T05:32:18;153.02499999999998;;;140.9375;;
14675;SDS011;7426;52.524;13.460;2022-09-20T05:34:18;120.8375;;;111.3125;;
14675;SDS011;7426;52.524;13.460;2022-09-20T05:36:16;162.07500000000002;;;149.75;;
14675;SDS011;7426;52.524;13.460;2022-09-20T05:38:17;132.8625;;;122.4375;;
14675;SDS011;7426;52.524;13.460;2022-09-20T05:40:17;113.36250000000001;;;103.6875;;
14675;SDS011;7426;52.524;13.460;2022-09-20T05:42:15;103.525;;;94.325;;
14675;SDS011;7426;52.524;13.460;2022-09-20T05:44:15;48.875;;;43.6625;;
14675;SDS011;7426;52.524;13.460;2022-09-20T05:46:15;37.0125;;;31.0875;;
14675;SDS011;7426;52.524;13.460;2022-09-20T05:48:16;67.9375;;;61.6375;;
14675;SDS011;7426;52.524;13.460;2022-09-20T05:50:18;33.175000000000004;;;28.812500000000004;;
14675;SDS011;7426;52.524;13.460;2022-09-20T05:52:22;50.9625;;;44.7625;;
14675;SDS011;7426;52.524;13.460;2022-09-20T05:54:20;157.275;;;144.7625;;
14675;SDS011;7426;52.524;13.460;2022-09-20T05:56:15;170.97500000000002;;;158.02499999999998;;
14675;SDS011;7426;52.524;13.460;2022-09-20T05:58:18;71.1125;;;63.97500000000001;;
14675;SDS011;7426;52.524;13.460;2022-09-20T06:00:14;143.7125;;;131.9;;
14675;SDS011;7426;52.524;13.460;2022-09-20T06:02:18;178.7875;;;164.36249999999998;;
14675;SDS011;7426;52.524;13.460;2022-09-20T06:04:16;181.67499999999998;;;167.625;;
14675;SDS011;7426;52.524;13.460;2022-09-20T06:06:17;695.0625;;;439.1;;
14675;SDS011;7426;52.524;13.460;2022-09-20T06:08:17;647.5875;;;583.1375;;
14675;SDS011;7426;52.524;13.460;2022-09-20T06:10:35;682.9;;;598.55;;
14675;SDS011;7426;52.524;13.460;2022-09-20T06:12:19;503.0875;;;460.2;;
14675;SDS011;7426;52.524;13.460;2022-09-20T06:14:17;658.325;;;599.4125;;
14675;SDS011;7426;52.524;13.460;2022-09-20T06:16:16;1229.625;;;640.7249999999999;;
14675;SDS011;7426;52.524;13.460;2022-09-20T06:18:18;1682.5625;;;821.9625;;
14675;SDS011;7426;52.524;13.460;2022-09-20T06:20:16;1870.6;;;756.9375;;
14675;SDS011;7426;52.524;13.460;2022-09-20T06:22:15;1233.8125;;;541.6624999999999;;
14675;SDS011;7426;52.524;13.460;2022-09-20T06:24:18;1858.975;;;853.0999999999999;;
14675;SDS011;7426;52.524;13.460;2022-09-20T06:26:16;1367.25;;;481.6;;
14675;SDS011;7426;52.524;13.460;2022-09-20T06:28:15;1336.5625;;;609.525;;
14675;SDS011;7426;52.524;13.460;2022-09-20T06:30:16;1454.625;;;570.425;;
14675;SDS011;7426;52.524;13.460;2022-09-20T06:32:15;1067.525;;;431.78749999999997;;
14675;SDS011;7426;52.524;13.460;2022-09-20T06:34:14;1372.3125;;;475.45;;
14675;SDS011;7426;52.524;13.460;2022-09-20T06:42:14;1433.675;;;572.325;;
14675;SDS011;7426;52.524;13.460;2022-09-20T06:44:14;1571.975;;;853.8499999999999;;
14675;SDS011;7426;52.524;13.460;2022-09-20T06:46:15;1983.625;;;918.325;;
14675;SDS011;7426;52.524;13.460;2022-09-20T06:48:14;1497.15;;;832.9;;
14675;SDS011;7426;52.524;13.460;2022-09-20T06:50:14;1719.35;;;825.125;;
14675;SDS011;7426;52.524;13.460;2022-09-20T06:52:15;1873.5;;;877.8125;;
14675;SDS011;7426;52.524;13.460;2022-09-20T06:54:15;1943.0875;;;859.0;;
14675;SDS011;7426;52.524;13.460;2022-09-20T06:56:15;1527.3;;;792.8875;;
14675;SDS011;7426;52.524;13.460;2022-09-20T06:58:14;1708.3375;;;835.625;;
14675;SDS011;7426;52.524;13.460;2022-09-20T07:00:15;1575.6;;;789.425;;
14675;SDS011;7426;52.524;13.460;2022-09-20T07:02:15;1429.4125;;;520.35;;
14675;SDS011;7426;52.524;13.460;2022-09-20T07:04:14;1389.5375;;;460.0375;;
14675;SDS011;7426;52.524;13.460;2022-09-20T07:06:18;1235.575;;;547.0999999999999;;
14675;SDS011;7426;52.524;13.460;2022-09-20T07:08:14;977.4875000000001;;;423.4625;;
14675;SDS011;7426;52.524;13.460;2022-09-20T07:10:15;1124.475;;;507.35;;
14675;SDS011;7426;52.524;13.460;2022-09-20T07:12:14;1522.8625000000002;;;662.45;;
14675;SDS011;7426;52.524;13.460;2022-09-20T07:14:15;1905.2375;;;804.1499999999999;;
14675;SDS011;7426;52.524;13.460;2022-09-20T07:16:15;2028.575;;;826.5;;
14675;SDS011;7426;52.524;13.460;2022-09-20T07:18:14;1824.75;;;713.8125;;
14675;SDS011;7426;52.524;13.460;2022-09-20T07:20:14;1881.5875;;;695.1500000000001;;
14675;SDS011;7426;52.524;13.460;2022-09-20T07:22:14;1945.0749999999998;;;742.1125;;
14675;SDS011;7426;52.524;13.460;2022-09-20T07:24:14;1628.2125;;;834.1375;;
14675;SDS011;7426;52.524;13.460;2022-09-20T07:26:16;1249.0125;;;539.7375;;
14675;SDS011;7426;52.524;13.460;2022-09-20T07:28:15;1767.4;;;694.05;;
14675;SDS011;7426;52.524;13.460;2022-09-20T07:30:15;1722.6;;;705.9749999999999;;
14675;SDS011;7426;52.524;13.460;2022-09-20T07:32:14;1509.0625;;;665.0;;
14675;SDS011;7426;52.524;13.460;2022-09-20T07:34:19;1704.325;;;820.95;;
14675;SDS011;7426;52.524;13.460;2022-09-20T07:36:15;1820.6;;;847.4;;
14675;SDS011;7426;52.524;13.460;2022-09-20T07:38:14;1745.5875;;;846.3;;
14675;SDS011;7426;52.524;13.460;2022-09-20T07:40:14;1747.6125;;;831.3;;
14675;SDS011;7426;52.524;13.460;2022-09-20T07:42:14;1785.925;;;840.3375;;
14675;SDS011;7426;52.524;13.460;2022-09-20T07:44:23;1844.05;;;872.7625;;
14675;SDS011;7426;52.524;13.460;2022-09-20T07:46:14;1631.475;;;849.6624999999999;;
14675;SDS011;7426;52.524;13.460;2022-09-20T07:48:15;1731.175;;;835.2249999999999;;
14675;SDS011;7426;52.524;13.460;2022-09-20T07:50:14;1874.7375;;;838.75;;
14675;SDS011;7426;52.524;13.460;2022-09-20T07:52:14;947.175;;;780.4625;;
14675;SDS011;7426;52.524;13.460;2022-09-20T07:54:14;932.325;;;653.25;;
14675;SDS011;7426;52.524;13.460;2022-09-20T07:56:14;1395.3125;;;847.0125;;
14675;SDS011;7426;52.524;13.460;2022-09-20T07:58:14;905.3875;;;729.3125;;
14675;SDS011;7426;52.524;13.460;2022-09-20T08:00:14;1655.25;;;876.2375;;
14675;SDS011;7426;52.524;13.460;2022-09-20T08:02:14;1372.9625;;;816.25;;
14675;SDS011;7426;52.524;13.460;2022-09-20T08:04:15;802.5375;;;671.0875000000001;;
14675;SDS011;7426;52.524;13.460;2022-09-20T08:06:17;982.875;;;761.35;;
14675;SDS011;7426;52.524;13.460;2022-09-20T08:08:15;971.7625;;;770.2125000000001;;
14675;SDS011;7426;52.524;13.460;2022-09-20T08:10:14;1397.7625;;;805.975;;
14675;SDS011;7426;52.524;13.460;2022-09-20T08:12:14;864.8125;;;701.3375;;
14675;SDS011;7426;52.524;13.460;2022-09-20T08:14:15;1827.7375;;;855.6875;;
14675;SDS011;7426;52.524;13.460;2022-09-20T08:16:14;648.3125;;;563.9125;;
14675;SDS011;7426;52.524;13.460;2022-09-20T08:18:15;1608.4750000000001;;;804.6625;;
14675;SDS011;7426;52.524;13.460;2022-09-20T08:20:14;1769.75;;;830.5875;;
14675;SDS011;7426;52.524;13.460;2022-09-20T08:22:14;1724.75;;;799.2249999999999;;
14675;SDS011;7426;52.524;13.460;2022-09-20T08:24:15;1236.4;;;809.7375000000001;;
14675;SDS011;7426;52.524;13.460;2022-09-20T08:26:15;1767.75;;;857.025;;
14675;SDS011;7426;52.524;13.460;2022-09-20T08:28:15;1980.0375;;;903.6624999999999;;
14675;SDS011;7426;52.524;13.460;2022-09-20T08:30:14;1952.25;;;866.9749999999999;;
14675;SDS011;7426;52.524;13.460;2022-09-20T08:32:14;1751.125;;;811.95;;
14675;SDS011;7426;52.524;13.460;2022-09-20T08:34:16;1787.675;;;846.1125;;
14675;SDS011;7426;52.524;13.460;2022-09-20T08:36:15;1480.0125;;;835.925;;
14675;SDS011;7426;52.524;13.460;2022-09-20T08:38:14;1163.9375;;;776.2249999999999;;
14675;SDS011;7426;52.524;13.460;2022-09-20T08:40:14;962.8;;;551.0875;;
14675;SDS011;7426;52.524;13.460;2022-09-20T08:42:18;1614.075;;;817.75;;
14675;SDS011;7426;52.524;13.460;2022-09-20T08:44:15;889.7249999999999;;;718.7125000000001;;
14675;SDS011;7426;52.524;13.460;2022-09-20T08:46:16;1524.4499999999998;;;753.5625;;
14675;SDS011;7426;52.524;13.460;2022-09-20T08:48:14;1872.725;;;883.625;;
14675;SDS011;7426;52.524;13.460;2022-09-20T08:50:15;1297.775;;;737.2125000000001;;
14675;SDS011;7426;52.524;13.460;2022-09-20T08:52:15;1848.95;;;846.1875;;
14675;SDS011;7426;52.524;13.460;2022-09-20T08:54:15;1499.9625;;;804.3;;
14675;SDS011;7426;52.524;13.460;2022-09-20T08:56:15;1483.7625;;;673.0;;
14675;SDS011;7426;52.524;13.460;2022-09-20T08:58:15;1573.6875;;;832.2125;;
14675;SDS011;7426;52.524;13.460;2022-09-20T09:00:17;1815.6999999999998;;;862.1875;;
14675;SDS011;7426;52.524;13.460;2022-09-20T09:02:15;1931.375;;;830.7125;;
14675;SDS011;7426;52.524;13.460;2022-09-20T09:04:15;1895.875;;;705.375;;
14675;SDS011;7426;52.524;13.460;2022-09-20T09:06:14;1401.0375;;;691.675;;
14675;SDS011;7426;52.524;13.460;2022-09-20T09:08:16;1149.0500000000002;;;319.8;;
14675;SDS011;7426;52.524;13.460;2022-09-20T09:10:16;1683.7875;;;472.88750000000005;;
14675;SDS011;7426;52.524;13.460;2022-09-20T09:12:16;620.1625000000001;;;332.25;;
14675;SDS011;7426;52.524;13.460;2022-09-20T09:14:47;1313.3375;;;547.75;;
14675;SDS011;7426;52.524;13.460;2022-09-20T09:16:15;1837.4875;;;802.7125;;
14675;SDS011;7426;52.524;13.460;2022-09-20T09:18:14;1344.15;;;584.55;;
14675;SDS011;7426;52.524;13.460;2022-09-20T09:20:16;1929.7625;;;848.1125;;
14675;SDS011;7426;52.524;13.460;2022-09-20T09:22:19;1932.575;;;850.7625;;
14675;SDS011;7426;52.524;13.460;2022-09-20T09:24:15;1847.075;;;786.3000000000001;;
14675;SDS011;7426;52.524;13.460;2022-09-20T09:26:15;1386.375;;;601.6375;;
14675;SDS011;7426;52.524;13.460;2022-09-20T09:28:14;1946.1625;;;858.425;;
14675;SDS011;7426;52.524;13.460;2022-09-20T09:30:18;1892.4375;;;858.3;;
14675;SDS011;7426;52.524;13.460;2022-09-20T09:32:20;1336.675;;;461.85;;
14675;SDS011;7426;52.524;13.460;2022-09-20T09:34:22;1884.7;;;815.5125;;
14675;SDS011;7426;52.524;13.460;2022-09-20T09:36:15;1272.025;;;554.1125;;
14675;SDS011;7426;52.524;13.460;2022-09-20T09:38:16;1584.5;;;589.7874999999999;;
14675;SDS011;7426;52.524;13.460;2022-09-20T09:40:16;1930.175;;;828.9875;;
14675;SDS011;7426;52.524;13.460;2022-09-20T09:42:18;1887.1125;;;816.9124999999999;;
14675;SDS011;7426;52.524;13.460;2022-09-20T09:44:18;1995.3625;;;855.8375;;
14675;SDS011;7426;52.524;13.460;2022-09-20T09:46:16;1930.0375;;;846.55;;
14675;SDS011;7426;52.524;13.460;2022-09-20T09:48:16;1954.3;;;883.425;;
14675;SDS011;7426;52.524;13.460;2022-09-20T09:50:20;1378.825;;;613.55;;
14675;SDS011;7426;52.524;13.460;2022-09-20T09:52:15;1867.8;;;806.775;;
14675;SDS011;7426;52.524;13.460;2022-09-20T09:54:16;1900.9375;;;787.5374999999999;;
14675;SDS011;7426;52.524;13.460;2022-09-20T09:56:19;1984.375;;;856.05;;
14675;SDS011;7426;52.524;13.460;2022-09-20T09:58:16;2047.2875;;;879.825;;
14675;SDS011;7426;52.524;13.460;2022-09-20T10:00:15;1883.0875;;;828.9625;;
14675;SDS011;7426;52.524;13.460;2022-09-20T10:02:17;1818.55;;;822.7625;;
14675;SDS011;7426;52.524;13.460;2022-09-20T10:04:15;1889.825;;;814.2874999999999;;
14675;SDS011;7426;52.524;13.460;2022-09-20T10:06:17;1837.8125;;;831.9124999999999;;
14675;SDS011;7426;52.524;13.460;2022-09-20T10:08:18;1871.85;;;811.4;;
14675;SDS011;7426;52.524;13.460;2022-09-20T10:10:18;1879.8;;;856.4124999999999;;
14675;SDS011;7426;52.524;13.460;2022-09-20T10:12:18;1844.8125;;;816.325;;
14675;SDS011;7426;52.524;13.460;2022-09-20T10:14:19;1846.9875;;;794.675;;
14675;SDS011;7426;52.524;13.460;2022-09-20T10:16:18;1861.6;;;837.15;;
14675;SDS011;7426;52.524;13.460;2022-09-20T10:18:20;1835.175;;;825.95;;
14675;SDS011;7426;52.524;13.460;2022-09-20T10:20:21;1851.6625;;;831.075;;
14675;SDS011;7426;52.524;13.460;2022-09-20T10:22:19;903.425;;;300.2125;;
14675;SDS011;7426;52.524;13.460;2022-09-20T10:24:16;2020.225;;;870.675;;
14675;SDS011;7426;52.524;13.460;2022-09-20T10:26:17;1842.6875;;;842.625;;
14675;SDS011;7426;52.524;13.460;2022-09-20T10:28:18;1939.2875;;;827.3875;;
14675;SDS011;7426;52.524;13.460;2022-09-20T10:30:15;1180.7375;;;458.87499999999994;;
14675;SDS011;7426;52.524;13.460;2022-09-20T10:32:18;1674.0625;;;675.2124999999999;;
14675;SDS011;7426;52.524;13.460;2022-09-20T10:34:19;1833.8375;;;827.8499999999999;;
14675;SDS011;7426;52.524;13.460;2022-09-20T10:36:16;1991.6125;;;856.675;;